• Join FlightAware (Why Join?)
  • Login
  • US Flag 
06:08PM EDT


 

Airport Tracker/Info


-or-


 

Live Flight TrackerFlight Track Log ✈ DAL2039 ✈ 01-Dec-2013 ✈ KDCA - KATL

Flight Track Log - Related Links

Times and Time Zones

All times are in EST time to prevent confusion due to time zone crossing. See the DAL2039 flight status page for this flight to view local times or setup timezone preferences in your user account.

Time Position Orientation Groundspeed Altitude Reporting Facility
EST Latitude Longitude Course Direction KTS MPH feet Rate Location/Type
03:22PM 38.8856 -77.0611 240° Southwest 181 208 2,100  Level Washington Center
03:23PM 38.9308 -77.1181 316° Northwest 254 292 4,800 3,180 Climbing Washington Center
03:24PM 38.9842 -77.1806 318° Northwest 268 308 8,600 2,760 Climbing Washington Center
03:25PM 38.5860 -77.4573 236° Southwest  Level Estimated
03:25PM 39.0417 -77.2433 320° Northwest 280 322 10,400  Level Washington Center
03:26PM 38.5330 -77.5738 240° Southwest  Level FlightAware Approximate
03:26PM 39.0406 -77.3342 269° West 310 357 11,100  Level Washington Center
03:27PM 38.4798 -77.6902 240° Southwest  Level FlightAware Approximate
03:27PM 38.9603 -77.3961 211° Southwest 358 412 12,800  Level Washington Center
03:28PM 38.8717 -77.4608 210° Southwest 373 429 14,200 1,080 Climbing Washington Center
03:29PM 38.7894 -77.5225 210° Southwest 373 429 15,000 960 Climbing Washington Center
03:30PM 38.6989 -77.5894 210° Southwest 373 429 16,200 1,800 Climbing Washington Center
03:31PM 38.6039 -77.6586 210° Southwest 378 435 18,700 2,160 Climbing Washington Center
03:32PM 38.5297 -77.7150 211° Southwest 383 441 20,600 2,220 Climbing Washington Center
03:33PM 38.4442 -77.8450 230° Southwest 393 452 23,200 2,040 Climbing Washington Center
03:34PM 38.3667 -77.9672 231° Southwest 398 458 24,700 1,620 Climbing Washington Center
03:35PM 38.3139 -78.0950 242° Southwest 422 486 26,500 1,620 Climbing Washington Center
03:36PM 38.2467 -78.2250 237° Southwest 440 506 28,000 1,560 Climbing Washington Center
03:37PM 38.1769 -78.3572 236° Southwest 452 520 29,700 1,860 Climbing Washington Center
03:38PM 38.1133 -78.4894 239° Southwest 452 520 31,800 1,980 Climbing Washington Center
03:39PM 38.0681 -78.6275 247° West 429 494 33,700 1,680 Climbing Washington Center
03:40PM 38.0183 -78.7786 247° West 419 482 35,200 1,140 Climbing Washington Center
03:41PM 37.9708 -78.9161 246° West 419 482 36,000 360 Climbing Washington Center
03:42PM 37.9275 -79.0431 247° West 414 476 36,000  Level Washington Center
03:43PM 37.8722 -79.1539 238° Southwest 409 471 36,000  Level Washington Center
03:44PM 37.7961 -79.2578 227° Southwest 409 471 36,000  Level Washington Center
03:45PM 37.7175 -79.3669 228° Southwest 415 478 36,000  Level Washington Center
03:46PM 37.6303 -79.4858 227° Southwest 423 487 36,000  Level Washington Center
03:47PM 37.5606 -79.5819 228° Southwest 423 487 36,000  Level Washington Center
03:48PM 37.4753 -79.6978 227° Southwest 423 487 36,000  Level Washington Center
03:51PM 37.2733 -79.9703 227° Southwest 444 511 36,000  Level Atlanta Center
03:52PM 37.1933 -80.0786 227° Southwest 433 498 36,000  Level Atlanta Center
03:53PM 37.1214 -80.1733 226° Southwest 428 493 36,000  Level Atlanta Center
03:54PM 37.0414 -80.2814 227° Southwest 428 493 36,000  Level Atlanta Center
03:55PM 36.9631 -80.3864 227° Southwest 428 493 36,000  Level Atlanta Center
03:56PM 36.8831 -80.4939 227° Southwest 428 493 36,000  Level Atlanta Center
03:57PM 36.7967 -80.6092 227° Southwest 428 493 36,000  Level Atlanta Center
03:58PM 36.7261 -80.7003 226° Southwest 422 486 36,000  Level Atlanta Center
03:59PM 36.6497 -80.8069 228° Southwest 417 480 36,000  Level Atlanta Center
04:00PM 36.5692 -80.9136 227° Southwest 417 480 36,000  Level Atlanta Center
04:01PM 36.4883 -81.0175 226° Southwest 417 480 36,000  Level Atlanta Center
04:02PM 36.4094 -81.1236 227° Southwest 417 480 36,000  Level Atlanta Center
04:03PM 36.3286 -81.2297 227° Southwest 417 480 36,000  Level Atlanta Center
04:04PM 36.2394 -81.3486 227° Southwest 422 486 36,000  Level Atlanta Center
04:05PM 36.1583 -81.4517 226° Southwest 422 486 36,000  Level Atlanta Center
04:06PM 36.0792 -81.5569 227° Southwest 428 493 36,000  Level Atlanta Center
04:07PM 35.9978 -81.6647 227° Southwest 428 493 36,000  Level Atlanta Center
04:08PM 35.9164 -81.7722 227° Southwest 428 493 36,000  Level Atlanta Center
04:09PM 35.8347 -81.8744 225° Southwest 428 493 36,000  Level Atlanta Center
04:10PM 35.7531 -81.9764 225° Southwest 428 493 36,000 -420 Level Atlanta Center
04:11PM 35.6756 -82.0781 227° Southwest 428 493 35,200 -540 Descending Atlanta Center
04:12PM 35.5917 -82.1872 227° Southwest 428 493 35,000 -120 Descending Atlanta Center
04:13PM 35.5097 -82.2886 225° Southwest 433 498 35,000 -360 Level Atlanta Center
04:14PM 35.4275 -82.3897 225° Southwest 428 493 34,300 -840 Descending Atlanta Center
04:15PM 35.3392 -82.4856 222° Southwest 428 493 33,400 -900 Descending Atlanta Center
04:16PM 35.2714 -82.5633 223° Southwest 422 486 32,500 -1,380 Descending Atlanta Center
04:17PM 35.1661 -82.6769 221° Southwest 417 480 30,700 1,740 Descending Atlanta Center
04:18PM 35.0919 -82.7594 222° Southwest 417 480 36,000 -3,300 Climbing Atlanta Center
04:19PM 35.0072 -82.8519 222° Southwest 412 474 24,100 -6,000 Descending Atlanta Center
04:20PM 34.9164 -82.9494 221° Southwest 412 474 24,000 -60 Descending Atlanta Center
04:21PM 34.8419 -83.0239 219° Southwest 407 468 24,000  Level Atlanta Center
04:22PM 34.7592 -83.1108 221° Southwest 399 459 24,000  Level Atlanta Center
04:23PM 34.6700 -83.2156 224° Southwest 399 459 24,000  Level Atlanta Center
04:24PM 34.5872 -83.3044 221° Southwest 404 465 24,000 -180 Level Atlanta Center
04:25PM 34.5042 -83.3936 222° Southwest 404 465 23,700 -1,500 Descending Atlanta Center
04:26PM 34.4233 -83.4797 221° Southwest 404 465 21,100 -2,700 Descending Atlanta Center
04:27PM 34.3444 -83.5658 222° Southwest 397 457 18,400 -2,640 Descending Atlanta Center
04:28PM 34.2694 -83.6492 223° Southwest 380 437 15,900 -2,520 Descending Atlanta Center
04:29PM 34.1925 -83.7272 220° Southwest 374 430 13,400 -1,800 Descending Atlanta Center
04:30PM 34.1239 -83.8031 222° Southwest 349 402 12,400 -720 Descending Atlanta Center
04:31PM 34.0656 -83.8683 223° Southwest 308 354 12,000 -780 Descending Atlanta Center
04:31PM 34.0333 -83.9000 219° Southwest 295 339 11,300 -1,620 Descending Atlanta TRACON
04:32PM 33.9833 -83.9667 228° Southwest 268 308 9,600 -1,140 Descending Atlanta TRACON
04:33PM 33.9000 -83.9667 180° South 292 336 9,100 -360 Descending Atlanta TRACON
04:34PM 33.8672 -83.9636 176° South 279 321 9,100 -480 Level Atlanta Center
04:35PM 33.7900 -83.9614 179° South 279 321 8,400 -780 Descending Atlanta Center
04:36PM 33.7044 -83.9764 188° South 279 321 7,600 -720 Descending Atlanta Center
04:37PM 33.6378 -84.0089 202° Southwest 273 314 7,000 -840 Descending Atlanta Center
04:38PM 33.6294 -84.0786 262° West 209 241 6,000 -960 Descending Atlanta Center
04:39PM 33.6333 -84.1833 273° West 213 245 4,600 -960 Descending Atlanta TRACON
04:40PM 33.6333 -84.2500 270° West 201 231 3,800 -960 Descending Atlanta TRACON
04:41PM 33.6333 -84.3167 270° West 186 214 2,700 -960 Descending Atlanta TRACON
04:42PM 33.6333 -84.3667 270° West 140 161 1,900 -840 Descending Atlanta TRACON